createdAt,value
2023-01-17T00:02:24.734Z,96106.94
2023-01-17T00:05:11.087Z,96108.69
2023-01-17T00:07:57.351Z,96131.34
2023-01-17T00:10:28.462Z,96124.53
2023-01-17T00:13:03.491Z,96126.31
2023-01-17T00:15:32.389Z,96137.63
2023-01-17T00:18:00.144Z,96132.66
2023-01-17T00:20:49.803Z,96148.34
2023-01-17T00:23:43.619Z,96160.72
2023-01-17T00:26:19.128Z,96147.53
2023-01-17T00:28:48.327Z,96156.84
2023-01-17T00:31:17.479Z,96159.00
2023-01-17T00:33:45.000Z,96143.91
2023-01-17T00:36:12.684Z,96148.84
2023-01-17T00:38:41.245Z,96149.13
2023-01-17T00:41:29.104Z,96145.31
2023-01-17T00:44:15.163Z,96148.06
2023-01-17T00:47:01.192Z,96142.84
2023-01-17T00:49:47.113Z,96145.31
2023-01-17T00:52:38.242Z,96152.19
2023-01-17T00:55:24.952Z,96149.72
2023-01-17T00:58:11.104Z,96144.22
2023-01-17T01:00:57.259Z,96149.44
2023-01-17T01:03:43.396Z,96153.25
2023-01-17T01:06:29.779Z,96163.16
2023-01-17T01:09:15.739Z,96173.31
2023-01-17T01:12:02.012Z,96170.31
2023-01-17T01:14:48.084Z,96174.94
2023-01-17T01:17:34.006Z,96180.47
2023-01-17T01:20:20.308Z,96179.09
2023-01-17T01:23:06.415Z,96182.97
2023-01-17T01:25:52.392Z,96186.53
2023-01-17T01:28:38.455Z,96191.22
2023-01-17T01:31:24.869Z,96187.63
2023-01-17T01:33:53.287Z,96194.78
2023-01-17T01:36:20.958Z,96186.53
2023-01-17T01:38:50.296Z,96196.97
2023-01-17T01:41:18.189Z,96188.19
2023-01-17T01:43:54.179Z,96180.75
2023-01-17T01:46:40.199Z,96177.19
2023-01-17T01:49:24.978Z,96187.59
2023-01-17T01:52:02.538Z,96192.03
2023-01-17T01:54:42.358Z,96199.47
2023-01-17T01:57:18.137Z,96188.19
2023-01-17T01:59:56.451Z,96193.69
2023-01-17T02:02:23.843Z,96185.16
2023-01-17T02:04:52.731Z,96203.59
2023-01-17T02:07:32.278Z,96195.34
2023-01-17T02:09:59.983Z,96194.22
2023-01-17T02:12:27.735Z,96193.13
2023-01-17T02:14:55.551Z,96187.34
2023-01-17T02:17:45.283Z,96190.94
2023-01-17T02:20:38.825Z,96180.47
2023-01-17T02:23:30.594Z,96184.88
2023-01-17T02:26:21.809Z,96175.53
2023-01-17T02:29:06.926Z,96182.66
2023-01-17T02:31:44.187Z,96185.97
2023-01-17T02:34:46.333Z,96189.81
2023-01-17T02:37:37.804Z,96187.09
2023-01-17T02:40:27.280Z,96187.06
2023-01-17T02:43:02.831Z,96180.75
2023-01-17T02:45:30.257Z,96181.56
2023-01-17T02:47:58.249Z,96181.84
2023-01-17T02:51:14.634Z,96173.06
2023-01-17T02:54:23.929Z,96179.66
2023-01-17T02:57:53.123Z,96179.66
2023-01-17T03:00:35.600Z,96182.13
2023-01-17T03:03:27.045Z,96176.34
2023-01-17T03:06:26.045Z,96176.06
2023-01-17T03:08:54.628Z,96170.31
2023-01-17T03:11:22.199Z,96162.31
2023-01-17T03:13:55.990Z,96171.13
2023-01-17T03:16:28.306Z,96173.31
2023-01-17T03:18:55.757Z,96184.31
2023-01-17T03:21:25.093Z,96187.63
2023-01-17T03:23:52.673Z,96184.88
2023-01-17T03:26:20.047Z,96191.75
2023-01-17T03:28:47.356Z,96186.50
2023-01-17T03:31:17.188Z,96192.03
2023-01-17T03:33:44.466Z,96185.94
2023-01-17T03:36:12.325Z,96192.97
2023-01-17T03:38:39.779Z,96195.81
2023-01-17T03:41:07.512Z,96191.84
2023-01-17T03:43:34.846Z,96197.47
2023-01-17T03:46:16.468Z,96182.88
2023-01-17T03:48:43.759Z,96183.72
2023-01-17T03:51:11.132Z,96185.88
2023-01-17T03:53:38.394Z,96179.78
2023-01-17T03:56:09.235Z,96180.59
2023-01-17T03:58:36.506Z,96187.72
2023-01-17T04:01:04.486Z,96194.81
2023-01-17T04:03:31.874Z,96199.34
2023-01-17T04:05:59.421Z,96189.72
2023-01-17T04:08:26.968Z,96189.78
2023-01-17T04:10:54.394Z,96196.41
2023-01-17T04:13:21.980Z,96193.41
2023-01-17T04:15:51.680Z,96192.03
2023-01-17T04:18:23.066Z,96200.28
2023-01-17T04:20:51.547Z,96203.81
2023-01-17T04:23:19.321Z,96212.91
2023-01-17T04:25:46.590Z,96209.88
2023-01-17T04:28:14.064Z,96196.38
2023-01-17T04:30:41.306Z,96192.81
2023-01-17T04:33:08.746Z,96187.88
2023-01-17T04:35:36.065Z,96192.81
2023-01-17T04:38:03.905Z,96190.59
2023-01-17T04:40:31.639Z,96197.22
2023-01-17T04:42:59.686Z,96192.00
2023-01-17T04:45:27.266Z,96195.03
2023-01-17T04:47:54.825Z,96206.28
2023-01-17T04:50:23.207Z,96192.53
2023-01-17T04:52:50.629Z,96207.84
2023-01-17T04:55:18.151Z,96203.72
2023-01-17T04:57:45.441Z,96209.50
2023-01-17T05:00:13.816Z,96211.66
2023-01-17T05:02:41.131Z,96206.53
2023-01-17T05:05:10.064Z,96212.06
2023-01-17T05:07:37.440Z,96207.72
2023-01-17T05:10:10.957Z,96207.22
2023-01-17T05:12:38.697Z,96204.53
2023-01-17T05:15:06.886Z,96215.78
2023-01-17T05:17:34.139Z,96192.59
2023-01-17T05:20:01.572Z,96197.25
2023-01-17T05:22:28.871Z,96202.19
2023-01-17T05:24:56.108Z,96206.56
2023-01-17T05:27:23.388Z,96201.34
2023-01-17T05:29:51.079Z,96203.56
2023-01-17T05:32:18.533Z,96205.22
2023-01-17T05:34:45.864Z,96210.72
2023-01-17T05:37:13.535Z,96202.19
2023-01-17T05:39:40.785Z,96205.19
2023-01-17T05:42:08.019Z,96196.97
2023-01-17T05:44:35.264Z,96212.91
2023-01-17T05:47:02.530Z,96197.47
2023-01-17T05:49:30.107Z,96210.50
2023-01-17T05:51:57.979Z,96207.81
2023-01-17T05:54:25.330Z,96205.03
2023-01-17T05:56:52.470Z,96193.00
2023-01-17T05:59:28.774Z,96197.47
2023-01-17T06:01:59.695Z,96194.19
2023-01-17T06:04:26.945Z,96183.72
2023-01-17T06:06:54.389Z,96174.31
2023-01-17T06:09:21.800Z,96176.91
2023-01-17T06:11:49.020Z,96164.81
2023-01-17T06:14:16.172Z,96167.50
2023-01-17T06:16:43.440Z,96161.63
2023-01-17T06:19:13.636Z,96162.72
2023-01-17T06:21:40.883Z,96145.53
2023-01-17T06:24:08.180Z,96137.22
2023-01-17T06:26:35.441Z,96140.38
2023-01-17T06:29:02.813Z,96131.81
2023-01-17T06:31:30.093Z,96133.97
2023-01-17T06:33:57.249Z,96127.56
2023-01-17T06:36:24.546Z,96131.31
2023-01-17T06:38:51.810Z,96134.47
2023-01-17T06:41:19.049Z,96138.63
2023-01-17T06:43:46.255Z,96137.94
2023-01-17T06:46:13.595Z,96142.84
2023-01-17T06:48:43.714Z,96153.00
2023-01-17T06:51:13.317Z,96146.88
2023-01-17T06:53:40.780Z,96149.66
2023-01-17T06:56:09.895Z,96144.13
2023-01-17T06:58:37.213Z,96143.53
2023-01-17T07:01:13.182Z,96146.97
2023-01-17T07:03:40.788Z,96142.69
2023-01-17T07:06:09.575Z,96140.81
2023-01-17T07:08:40.320Z,96144.66
2023-01-17T07:11:13.838Z,96138.19
2023-01-17T07:13:41.939Z,96135.72
2023-01-17T07:16:09.473Z,96135.00
2023-01-17T07:18:36.809Z,96133.13
2023-01-17T07:21:04.388Z,96133.72
2023-01-17T07:23:31.598Z,96131.53
2023-01-17T07:26:00.969Z,96119.75
2023-01-17T07:28:29.122Z,96106.84
2023-01-17T07:30:57.331Z,96099.88
2023-01-17T07:33:24.618Z,96103.97
2023-01-17T07:35:51.852Z,96097.78
2023-01-17T07:38:21.047Z,96100.53
2023-01-17T07:40:48.402Z,96094.50
2023-01-17T07:43:16.765Z,96083.50
2023-01-17T07:45:50.753Z,96093.13
2023-01-17T07:48:23.697Z,96100.78
2023-01-17T07:50:57.601Z,96092.56
2023-01-17T07:53:32.731Z,96080.47
2023-01-17T07:56:07.514Z,96081.84
2023-01-17T07:58:36.136Z,96086.50
2023-01-17T08:01:13.488Z,96095.53
2023-01-17T08:03:41.605Z,96088.84
2023-01-17T08:06:24.693Z,96090.06
2023-01-17T08:08:56.453Z,96091.97
2023-01-17T08:11:23.814Z,96092.50
2023-01-17T08:13:57.548Z,96094.09
2023-01-17T08:16:28.562Z,96090.19
2023-01-17T08:19:00.039Z,96099.16
2023-01-17T08:21:27.523Z,96089.97
2023-01-17T08:23:54.730Z,96103.97
2023-01-17T08:26:23.158Z,96100.31
2023-01-17T08:29:01.194Z,96107.75
2023-01-17T08:31:35.473Z,96109.22
2023-01-17T08:34:03.071Z,96112.41
2023-01-17T08:36:31.318Z,96105.16
2023-01-17T08:38:59.157Z,96110.63
2023-01-17T08:41:27.938Z,96116.28
2023-01-17T08:44:03.699Z,96109.91
2023-01-17T08:46:32.831Z,96107.59
2023-01-17T08:49:12.558Z,96109.50
2023-01-17T08:51:41.480Z,96091.97
2023-01-17T08:54:12.976Z,96090.03
2023-01-17T08:56:40.356Z,96098.28
2023-01-17T08:59:09.348Z,96090.00
2023-01-17T09:01:40.766Z,96085.34
2023-01-17T09:04:10.444Z,96083.06
2023-01-17T09:06:48.364Z,96089.03
2023-01-17T09:09:17.966Z,96093.88
2023-01-17T09:11:45.604Z,96090.06
2023-01-17T09:14:14.079Z,96084.47
2023-01-17T09:16:41.792Z,96079.41
2023-01-17T09:19:10.319Z,96079.13
2023-01-17T09:21:37.716Z,96078.44
2023-01-17T09:24:05.247Z,96065.56
2023-01-17T09:26:32.585Z,96063.38
2023-01-17T09:28:59.978Z,96068.53
2023-01-17T09:31:28.169Z,96062.44
2023-01-17T09:33:58.328Z,96060.28
2023-01-17T09:36:28.993Z,96054.00
2023-01-17T09:39:01.303Z,96060.47
2023-01-17T09:41:41.658Z,96055.66
2023-01-17T09:44:30.974Z,96053.09
2023-01-17T09:47:22.552Z,96050.06
2023-01-17T09:49:51.690Z,96039.97
2023-01-17T09:52:23.853Z,96047.50
2023-01-17T09:54:51.954Z,96038.00
2023-01-17T09:58:03.625Z,96038.25
2023-01-17T10:00:38.750Z,96033.78
2023-01-17T10:03:30.756Z,96038.22
2023-01-17T10:06:43.707Z,96033.13
2023-01-17T10:09:56.139Z,96022.00
2023-01-17T10:13:16.473Z,96024.59
2023-01-17T10:16:28.619Z,96036.59
2023-01-17T10:19:22.705Z,96028.47
2023-01-17T10:22:21.682Z,96026.84
2023-01-17T10:25:15.916Z,96026.59
2023-01-17T10:28:04.075Z,96025.03
2023-01-17T10:30:40.294Z,96018.25
2023-01-17T10:33:43.657Z,96023.25
2023-01-17T10:36:27.747Z,96015.13
2023-01-17T10:39:02.347Z,96019.31
2023-01-17T10:41:50.775Z,96009.38
2023-01-17T10:44:50.004Z,96007.94
2023-01-17T10:47:25.271Z,95999.47
2023-01-17T10:49:57.568Z,96000.97
2023-01-17T10:52:56.659Z,96003.19
2023-01-17T10:55:47.719Z,96000.19
2023-01-17T10:58:15.461Z,95990.38
2023-01-17T11:01:00.769Z,95985.50
2023-01-17T11:03:29.433Z,95982.31
2023-01-17T11:06:24.148Z,95989.47
2023-01-17T11:09:03.059Z,95986.72
2023-01-17T11:11:35.410Z,96000.28
2023-01-17T11:14:20.912Z,95993.00
2023-01-17T11:17:05.357Z,95990.94
2023-01-17T11:19:36.517Z,95985.66
2023-01-17T11:22:07.483Z,95968.97
2023-01-17T11:24:51.634Z,95976.06
2023-01-17T11:27:35.124Z,95950.34
2023-01-17T11:30:16.416Z,95934.19
2023-01-17T11:33:08.645Z,95932.88
2023-01-17T11:35:45.463Z,95934.91
2023-01-17T11:38:22.009Z,95932.38
2023-01-17T11:40:52.739Z,95936.69
2023-01-17T11:43:30.239Z,95938.13
2023-01-17T11:46:17.866Z,95938.25
2023-01-17T11:48:56.609Z,95933.03
2023-01-17T11:51:42.007Z,95937.94
2023-01-17T11:54:30.141Z,95915.06
2023-01-17T11:57:03.204Z,95912.38
2023-01-17T11:59:37.660Z,95911.94
2023-01-17T12:03:18.336Z,95892.16
2023-01-17T12:06:56.757Z,95884.78
2023-01-17T12:09:48.730Z,95889.72
2023-01-17T12:13:13.748Z,95887.44
2023-01-17T12:16:27.021Z,95877.94
2023-01-17T12:19:26.284Z,95879.44
2023-01-17T12:22:37.241Z,95871.03
2023-01-17T12:25:55.038Z,95872.69
2023-01-17T12:29:48.685Z,95857.44
2023-01-17T12:32:33.737Z,95851.53
2023-01-17T12:35:34.786Z,95853.81
2023-01-17T12:38:31.714Z,95843.56
2023-01-17T12:41:32.873Z,95847.72
2023-01-17T12:44:02.489Z,95832.06
2023-01-17T12:47:01.243Z,95826.81
2023-01-17T12:50:07.440Z,95823.34
2023-01-17T12:53:35.828Z,95807.81
2023-01-17T12:56:43.120Z,95805.84
2023-01-17T12:59:38.630Z,95806.13
2023-01-17T13:02:43.313Z,95808.22
2023-01-17T13:05:33.102Z,95803.84
2023-01-17T13:08:51.712Z,95793.38
2023-01-17T13:11:44.530Z,95797.00
2023-01-17T13:14:15.655Z,95794.66
2023-01-17T13:17:30.656Z,95786.47
2023-01-17T13:20:47.024Z,95783.69
2023-01-17T13:24:08.450Z,95780.44
2023-01-17T13:27:07.061Z,95791.38
2023-01-17T13:29:53.647Z,95783.09
2023-01-17T13:33:18.244Z,95783.91
2023-01-17T13:36:42.069Z,95764.66
2023-01-17T13:40:06.020Z,95770.22
2023-01-17T13:42:54.961Z,95775.13
2023-01-17T13:45:37.871Z,95773.16
2023-01-17T13:48:15.039Z,95756.56
2023-01-17T13:51:07.267Z,95757.81
2023-01-17T13:53:36.537Z,95752.41
2023-01-17T13:56:22.894Z,95767.50
2023-01-17T13:59:02.148Z,95772.66
2023-01-17T14:01:34.983Z,95761.59
2023-01-17T14:04:09.166Z,95763.88
2023-01-17T14:06:45.149Z,95776.03
2023-01-17T14:09:29.060Z,95769.16
2023-01-17T14:12:19.901Z,95770.50
2023-01-17T14:14:52.144Z,95769.28
2023-01-17T14:17:26.936Z,95775.63
2023-01-17T14:20:07.094Z,95779.50
2023-01-17T14:22:50.130Z,95761.69
2023-01-17T14:25:33.708Z,95773.56
2023-01-17T14:28:32.158Z,95768.19
2023-01-17T14:31:03.605Z,95772.81
2023-01-17T14:33:40.022Z,95769.66
2023-01-17T14:36:25.039Z,95764.66
2023-01-17T14:38:52.865Z,95769.16
2023-01-17T14:41:28.925Z,95766.41
2023-01-17T14:44:00.044Z,95757.72
2023-01-17T14:46:33.165Z,95766.22
2023-01-17T14:49:16.052Z,95768.97
2023-01-17T14:51:44.637Z,95758.25
2023-01-17T14:54:22.306Z,95753.81
2023-01-17T14:56:49.715Z,95757.00
2023-01-17T14:59:22.163Z,95764.31
2023-01-17T15:02:07.759Z,95758.94
2023-01-17T15:04:41.103Z,95756.84
2023-01-17T15:07:20.569Z,95761.59
2023-01-17T15:09:49.925Z,95764.44
2023-01-17T15:12:19.134Z,95766.16
2023-01-17T15:14:47.378Z,95758.09
2023-01-17T15:17:26.851Z,95756.75
2023-01-17T15:20:03.762Z,95762.09
2023-01-17T15:22:32.281Z,95761.47
2023-01-17T15:25:01.160Z,95755.78
2023-01-17T15:27:29.056Z,95756.56
2023-01-17T15:30:02.026Z,95756.59
2023-01-17T15:32:32.843Z,95745.25
2023-01-17T15:35:03.107Z,95750.31
2023-01-17T15:37:39.488Z,95752.47
2023-01-17T15:40:21.786Z,95746.13
2023-01-17T15:42:58.883Z,95746.41
2023-01-17T15:45:34.439Z,95743.78
2023-01-17T15:48:44.888Z,95752.94
2023-01-17T15:51:14.005Z,95749.56
2023-01-17T15:53:43.339Z,95748.97
2023-01-17T15:56:33.416Z,95744.59
2023-01-17T15:59:39.091Z,95743.78
2023-01-17T16:02:59.865Z,95759.78
2023-01-17T16:05:32.939Z,95762.78
2023-01-17T16:08:04.320Z,95760.06
2023-01-17T16:10:39.121Z,95764.22
2023-01-17T16:13:43.463Z,95771.69
2023-01-17T16:16:24.586Z,95774.34
2023-01-17T16:19:01.400Z,95772.81
2023-01-17T16:21:32.275Z,95781.47
2023-01-17T16:24:01.018Z,95776.03
2023-01-17T16:26:29.332Z,95776.69
2023-01-17T16:28:57.258Z,95776.13
2023-01-17T16:31:25.394Z,95777.53
2023-01-17T16:33:53.007Z,95784.16
2023-01-17T16:36:23.092Z,95779.09
2023-01-17T16:38:55.284Z,95782.72
2023-01-17T16:41:23.056Z,95787.00
2023-01-17T16:44:08.765Z,95786.63
2023-01-17T16:46:38.709Z,95785.16
2023-01-17T16:49:06.493Z,95784.69
2023-01-17T16:51:34.694Z,95785.81
2023-01-17T16:54:02.585Z,95779.50
2023-01-17T16:56:31.434Z,95787.69
2023-01-17T16:58:58.966Z,95790.13
2023-01-17T17:01:26.694Z,95795.03
2023-01-17T17:03:54.272Z,95796.53
2023-01-17T17:06:21.999Z,95805.28
2023-01-17T17:08:50.210Z,95803.03
2023-01-17T17:11:23.197Z,95812.38
2023-01-17T17:13:52.302Z,95819.28
2023-01-17T17:16:26.712Z,95811.91
2023-01-17T17:19:06.667Z,95817.25
2023-01-17T17:21:39.781Z,95823.13
2023-01-17T17:24:07.570Z,95819.25
2023-01-17T17:26:37.470Z,95822.88
2023-01-17T17:29:10.675Z,95833.19
2023-01-17T17:31:41.166Z,95829.38
2023-01-17T17:34:15.647Z,95833.47
2023-01-17T17:36:43.035Z,95832.38
2023-01-17T17:39:15.805Z,95838.09
2023-01-17T17:41:45.835Z,95837.84
2023-01-17T17:44:13.178Z,95838.25
2023-01-17T17:46:43.140Z,95839.13
2023-01-17T17:49:10.725Z,95835.53
2023-01-17T17:51:40.622Z,95842.94
2023-01-17T17:54:13.656Z,95843.56
2023-01-17T17:56:48.349Z,95842.75
2023-01-17T17:59:28.569Z,95848.69
2023-01-17T18:02:00.087Z,95841.41
2023-01-17T18:04:28.154Z,95841.88
2023-01-17T18:06:58.494Z,95844.66
2023-01-17T18:09:26.407Z,95846.13
2023-01-17T18:11:56.975Z,95843.41
2023-01-17T18:14:30.080Z,95855.97
2023-01-17T18:16:58.086Z,95852.56
2023-01-17T18:19:26.994Z,95853.44
2023-01-17T18:22:13.296Z,95855.09
2023-01-17T18:24:41.544Z,95868.75
2023-01-17T18:27:11.189Z,95869.44
2023-01-17T18:29:39.061Z,95864.28
2023-01-17T18:32:07.531Z,95860.94
2023-01-17T18:34:35.862Z,95871.47
2023-01-17T18:37:15.585Z,95862.66
2023-01-17T18:40:20.827Z,95860.56
2023-01-17T18:42:50.062Z,95862.78
2023-01-17T18:45:32.061Z,95868.38
2023-01-17T18:48:02.803Z,95868.81
2023-01-17T18:50:31.686Z,95865.03
2023-01-17T18:53:10.844Z,95862.81
2023-01-17T18:55:41.980Z,95871.38
2023-01-17T18:58:13.239Z,95868.41
2023-01-17T19:00:44.269Z,95868.59
2023-01-17T19:03:14.207Z,95873.63
2023-01-17T19:05:42.119Z,95871.03
2023-01-17T19:08:09.845Z,95873.47
2023-01-17T19:10:49.594Z,95876.97
2023-01-17T19:13:18.351Z,95877.03
2023-01-17T19:15:52.165Z,95874.34
2023-01-17T19:18:22.646Z,95877.44
2023-01-17T19:20:54.066Z,95876.41
2023-01-17T19:23:23.487Z,95886.31
2023-01-17T19:25:55.628Z,95886.84
2023-01-17T19:28:24.035Z,95881.38
2023-01-17T19:31:12.583Z,95882.25
2023-01-17T19:33:53.070Z,95886.09
2023-01-17T19:36:59.035Z,95888.03
2023-01-17T19:40:22.274Z,95897.69
2023-01-17T19:42:50.053Z,95892.69
2023-01-17T19:45:17.706Z,95895.16
2023-01-17T19:47:45.394Z,95888.88
2023-01-17T19:50:14.975Z,95884.25
2023-01-17T19:52:42.499Z,95896.53
2023-01-17T19:55:10.234Z,95886.66
2023-01-17T19:57:40.635Z,95882.56
2023-01-17T20:00:13.296Z,95871.81
2023-01-17T20:02:40.914Z,95882.53
2023-01-17T20:05:09.078Z,95873.19
2023-01-17T20:07:36.461Z,95869.94
2023-01-17T20:10:04.407Z,95875.41
2023-01-17T20:12:32.134Z,95882.00
2023-01-17T20:14:59.580Z,95883.09
2023-01-17T20:17:26.827Z,95885.00
2023-01-17T20:19:57.656Z,95878.09
2023-01-17T20:22:24.932Z,95886.09
2023-01-17T20:24:52.319Z,95876.22
2023-01-17T20:27:21.476Z,95879.81
2023-01-17T20:29:49.931Z,95882.00
2023-01-17T20:32:17.233Z,95886.94
2023-01-17T20:34:45.537Z,95881.72
2023-01-17T20:37:12.808Z,95877.59
2023-01-17T20:39:40.220Z,95875.16
2023-01-17T20:42:07.540Z,95873.19
2023-01-17T20:44:35.336Z,95870.69
2023-01-17T20:47:03.924Z,95876.72
2023-01-17T20:49:32.668Z,95869.03
2023-01-17T20:52:02.924Z,95874.81
2023-01-17T20:54:31.275Z,95867.69
2023-01-17T20:56:58.644Z,95867.47
2023-01-17T20:59:26.187Z,95866.31
2023-01-17T21:01:53.679Z,95868.50
2023-01-17T21:04:25.939Z,95873.19
2023-01-17T21:06:53.484Z,95870.97
2023-01-17T21:09:21.976Z,95873.13
2023-01-17T21:11:50.477Z,95867.88
2023-01-17T21:14:21.854Z,95868.50
2023-01-17T21:16:50.461Z,95870.31
2023-01-17T21:19:22.983Z,95867.31
2023-01-17T21:21:51.196Z,95871.31
2023-01-17T21:24:19.655Z,95872.66
2023-01-17T21:26:47.526Z,95879.56
2023-01-17T21:29:17.580Z,95882.25
2023-01-17T21:31:45.413Z,95869.09
2023-01-17T21:34:13.669Z,95878.44
2023-01-17T21:36:43.276Z,95882.75
2023-01-17T21:39:18.727Z,95881.91
2023-01-17T21:41:50.629Z,95882.41
2023-01-17T21:44:22.424Z,95879.31
2023-01-17T21:46:56.368Z,95879.28
2023-01-17T21:49:24.132Z,95881.88
2023-01-17T21:51:54.548Z,95884.44
2023-01-17T21:54:47.248Z,95881.66
2023-01-17T21:57:42.903Z,95889.25
2023-01-17T22:00:16.825Z,95888.22
2023-01-17T22:02:47.007Z,95879.41
2023-01-17T22:05:16.953Z,95882.91
2023-01-17T22:08:05.782Z,95886.69
2023-01-17T22:10:44.703Z,95883.84
2023-01-17T22:13:18.281Z,95884.91
2023-01-17T22:15:46.249Z,95883.31
2023-01-17T22:18:15.308Z,95881.94
2023-01-17T22:20:43.147Z,95880.53
2023-01-17T22:23:11.860Z,95877.00
2023-01-17T22:25:39.276Z,95876.97
2023-01-17T22:28:06.789Z,95871.25
2023-01-17T22:30:34.125Z,95872.91
2023-01-17T22:33:01.371Z,95868.50
2023-01-17T22:35:28.891Z,95869.00
2023-01-17T22:38:21.984Z,95867.56
2023-01-17T22:40:49.271Z,95864.66
2023-01-17T22:43:16.557Z,95869.00
2023-01-17T22:45:45.837Z,95876.63
2023-01-17T22:48:13.217Z,95873.31
2023-01-17T22:50:40.588Z,95875.03
2023-01-17T22:53:08.618Z,95873.41
2023-01-17T22:55:35.828Z,95878.41
2023-01-17T22:58:03.019Z,95878.66
2023-01-17T23:00:31.562Z,95879.53
2023-01-17T23:02:59.302Z,95878.97
2023-01-17T23:05:26.788Z,95880.59
2023-01-17T23:07:54.190Z,95882.78
2023-01-17T23:10:40.391Z,95884.41
2023-01-17T23:13:11.845Z,95885.00
2023-01-17T23:15:58.029Z,95875.13
2023-01-17T23:18:44.208Z,95870.72
2023-01-17T23:21:11.988Z,95869.59
2023-01-17T23:23:39.311Z,95868.50
2023-01-17T23:26:06.777Z,95861.34
2023-01-17T23:28:34.205Z,95865.19
2023-01-17T23:31:05.880Z,95858.31
2023-01-17T23:33:33.233Z,95870.19
2023-01-17T23:36:01.846Z,95865.81
2023-01-17T23:38:29.703Z,95874.09
2023-01-17T23:41:29.848Z,95872.09
2023-01-17T23:43:59.085Z,95866.84
2023-01-17T23:46:30.149Z,95872.66
2023-01-17T23:48:57.570Z,95871.31
2023-01-17T23:51:25.202Z,95869.16
2023-01-17T23:53:57.385Z,95869.16
2023-01-17T23:56:25.056Z,95879.56
2023-01-17T23:58:52.945Z,95878.44
